<?xml version="1.0" encoding="UTF-8" standalone="no" ?>
<gpx xmlns="http://www.topografix.com/GPX/1/1" xmlns:xsi="http://www.w3.org/2001/XMLSchema-instance" xsi:schemaLocation="http://www.topografix.com/GPX/1/1 http://www.topografix.com/GPX/1/1/gpx.xsd" version="1.1" creator="VisuGPX - https://www.visugpx.com">
  <metadata>
    <name>Col de Rousset - Col de Chironne - Rochers de l\'Aiglette</name>
    <desc><![CDATA[Ascension aux Rochers de l\'Aiglette au départ du Col de Rousset. Etape au Col de Chironne]]></desc>
  </metadata>
  <trk>
    <name><![CDATA[ACTIVE LOG073201]]></name>
    <trkseg>
      <trkpt lat="44.838" lon="5.3969">
        <ele>1260.619</ele>
        <time>2015-09-27T07:32:12Z</time>
      </trkpt>
      <trkpt lat="44.83802" lon="5.39691">
        <ele>1259.258</ele>
        <time>2015-09-27T07:32:20Z</time>
      </trkpt>
      <trkpt lat="44.83809" lon="5.3965">
        <ele>1257.797</ele>
        <time>2015-09-27T07:32:42Z</time>
      </trkpt>
      <trkpt lat="44.83826" lon="5.39621">
        <ele>1257.192</ele>
        <time>2015-09-27T07:33:01Z</time>
      </trkpt>
      <trkpt lat="44.83831" lon="5.39597">
        <ele>1258.693</ele>
        <time>2015-09-27T07:33:17Z</time>
      </trkpt>
      <trkpt lat="44.83841" lon="5.39577">
        <ele>1260.336</ele>
        <time>2015-09-27T07:33:33Z</time>
      </trkpt>
      <trkpt lat="44.83843" lon="5.39569">
        <ele>1260.854</ele>
        <time>2015-09-27T07:33:38Z</time>
      </trkpt>
      <trkpt lat="44.83854" lon="5.39544">
        <ele>1262.328</ele>
        <time>2015-09-27T07:33:57Z</time>
      </trkpt>
      <trkpt lat="44.83856" lon="5.39539">
        <ele>1262.439</ele>
        <time>2015-09-27T07:34:01Z</time>
      </trkpt>
      <trkpt lat="44.8386" lon="5.39532">
        <ele>1262.654</ele>
        <time>2015-09-27T07:34:06Z</time>
      </trkpt>
      <trkpt lat="44.83875" lon="5.39514">
        <ele>1264.659</ele>
        <time>2015-09-27T07:34:23Z</time>
      </trkpt>
      <trkpt lat="44.83884" lon="5.39497">
        <ele>1265.431</ele>
        <time>2015-09-27T07:34:37Z</time>
      </trkpt>
      <trkpt lat="44.83903" lon="5.39483">
        <ele>1267.595</ele>
        <time>2015-09-27T07:34:57Z</time>
      </trkpt>
      <trkpt lat="44.83918" lon="5.39474">
        <ele>1268.353</ele>
        <time>2015-09-27T07:35:11Z</time>
      </trkpt>
      <trkpt lat="44.83925" lon="5.39459">
        <ele>1269.36</ele>
        <time>2015-09-27T07:35:24Z</time>
      </trkpt>
      <trkpt lat="44.83933" lon="5.39436">
        <ele>1270.876</ele>
        <time>2015-09-27T07:35:40Z</time>
      </trkpt>
      <trkpt lat="44.83944" lon="5.39412">
        <ele>1272.882</ele>
        <time>2015-09-27T07:35:59Z</time>
      </trkpt>
      <trkpt lat="44.83949" lon="5.39402">
        <ele>1273.434</ele>
        <time>2015-09-27T07:36:08Z</time>
      </trkpt>
      <trkpt lat="44.83962" lon="5.39378">
        <ele>1274.713</ele>
        <time>2015-09-27T07:36:28Z</time>
      </trkpt>
      <trkpt lat="44.83964" lon="5.39366">
        <ele>1275.532</ele>
        <time>2015-09-27T07:36:37Z</time>
      </trkpt>
      <trkpt lat="44.83965" lon="5.39363">
        <ele>1275.641</ele>
        <time>2015-09-27T07:36:39Z</time>
      </trkpt>
      <trkpt lat="44.83956" lon="5.3934">
        <ele>1277.157</ele>
        <time>2015-09-27T07:36:57Z</time>
      </trkpt>
      <trkpt lat="44.83952" lon="5.39337">
        <ele>1277.313</ele>
        <time>2015-09-27T07:37:01Z</time>
      </trkpt>
      <trkpt lat="44.83943" lon="5.39326">
        <ele>1278.555</ele>
        <time>2015-09-27T07:37:13Z</time>
      </trkpt>
      <trkpt lat="44.83934" lon="5.39305">
        <ele>1279.319</ele>
        <time>2015-09-27T07:37:28Z</time>
      </trkpt>
      <trkpt lat="44.8392" lon="5.39271">
        <ele>1280.476</ele>
        <time>2015-09-27T07:37:51Z</time>
      </trkpt>
      <trkpt lat="44.83907" lon="5.39241">
        <ele>1282.722</ele>
        <time>2015-09-27T07:38:14Z</time>
      </trkpt>
      <trkpt lat="44.83896" lon="5.39221">
        <ele>1284.704</ele>
        <time>2015-09-27T07:38:31Z</time>
      </trkpt>
      <trkpt lat="44.83895" lon="5.39218">
        <ele>1284.619</ele>
        <time>2015-09-27T07:38:33Z</time>
      </trkpt>
      <trkpt lat="44.83887" lon="5.39203">
        <ele>1286.36</ele>
        <time>2015-09-27T07:38:48Z</time>
      </trkpt>
      <trkpt lat="44.83885" lon="5.392">
        <ele>1286.524</ele>
        <time>2015-09-27T07:38:50Z</time>
      </trkpt>
      <trkpt lat="44.83884" lon="5.39198">
        <ele>1286.849</ele>
        <time>2015-09-27T07:38:52Z</time>
      </trkpt>
      <trkpt lat="44.83881" lon="5.39195">
        <ele>1287.098</ele>
        <time>2015-09-27T07:38:55Z</time>
      </trkpt>
      <trkpt lat="44.83872" lon="5.39182">
        <ele>1288.95</ele>
        <time>2015-09-27T07:39:10Z</time>
      </trkpt>
      <trkpt lat="44.83859" lon="5.39168">
        <ele>1290.657</ele>
        <time>2015-09-27T07:39:24Z</time>
      </trkpt>
      <trkpt lat="44.83849" lon="5.39154">
        <ele>1291.65</ele>
        <time>2015-09-27T07:39:35Z</time>
      </trkpt>
      <trkpt lat="44.83843" lon="5.39145">
        <ele>1292.543</ele>
        <time>2015-09-27T07:39:52Z</time>
      </trkpt>
      <trkpt lat="44.83837" lon="5.39132">
        <ele>1293.994</ele>
        <time>2015-09-27T07:40:11Z</time>
      </trkpt>
      <trkpt lat="44.83837" lon="5.39124">
        <ele>1294.486</ele>
        <time>2015-09-27T07:40:24Z</time>
      </trkpt>
      <trkpt lat="44.83834" lon="5.39112">
        <ele>1295.735</ele>
        <time>2015-09-27T07:40:34Z</time>
      </trkpt>
      <trkpt lat="44.83832" lon="5.39106">
        <ele>1294.752</ele>
        <time>2015-09-27T07:40:48Z</time>
      </trkpt>
      <trkpt lat="44.83823" lon="5.39104">
        <ele>1296.837</ele>
        <time>2015-09-27T07:41:26Z</time>
      </trkpt>
      <trkpt lat="44.83825" lon="5.39104">
        <ele>1296.71</ele>
        <time>2015-09-27T07:42:43Z</time>
      </trkpt>
      <trkpt lat="44.8381" lon="5.39095">
        <ele>1297.696</ele>
        <time>2015-09-27T07:43:02Z</time>
      </trkpt>
      <trkpt lat="44.83801" lon="5.3909">
        <ele>1298.475</ele>
        <time>2015-09-27T07:43:36Z</time>
      </trkpt>
      <trkpt lat="44.83789" lon="5.39086">
        <ele>1298.972</ele>
        <time>2015-09-27T07:44:00Z</time>
      </trkpt>
      <trkpt lat="44.83774" lon="5.39085">
        <ele>1301.089</ele>
        <time>2015-09-27T07:44:24Z</time>
      </trkpt>
      <trkpt lat="44.83768" lon="5.39082">
        <ele>1301.786</ele>
        <time>2015-09-27T07:44:40Z</time>
      </trkpt>
      <trkpt lat="44.83756" lon="5.39079">
        <ele>1303.184</ele>
        <time>2015-09-27T07:44:57Z</time>
      </trkpt>
      <trkpt lat="44.83752" lon="5.39075">
        <ele>1304.212</ele>
        <time>2015-09-27T07:45:21Z</time>
      </trkpt>
      <trkpt lat="44.83743" lon="5.39073">
        <ele>1305.142</ele>
        <time>2015-09-27T07:45:32Z</time>
      </trkpt>
      <trkpt lat="44.83737" lon="5.39071">
        <ele>1305.832</ele>
        <time>2015-09-27T07:45:52Z</time>
      </trkpt>
      <trkpt lat="44.83727" lon="5.3907">
        <ele>1307.914</ele>
        <time>2015-09-27T07:46:10Z</time>
      </trkpt>
      <trkpt lat="44.83722" lon="5.39071">
        <ele>1307.887</ele>
        <time>2015-09-27T07:46:29Z</time>
      </trkpt>
      <trkpt lat="44.83702" lon="5.39067">
        <ele>1310.345</ele>
        <time>2015-09-27T07:46:52Z</time>
      </trkpt>
      <trkpt lat="44.8369" lon="5.39064">
        <ele>1312.073</ele>
        <time>2015-09-27T07:47:07Z</time>
      </trkpt>
      <trkpt lat="44.83687" lon="5.39064">
        <ele>1312.411</ele>
        <time>2015-09-27T07:47:10Z</time>
      </trkpt>
      <trkpt lat="44.83679" lon="5.39063">
        <ele>1313.703</ele>
        <time>2015-09-27T07:47:29Z</time>
      </trkpt>
      <trkpt lat="44.83669" lon="5.39044">
        <ele>1315.978</ele>
        <time>2015-09-27T07:48:27Z</time>
      </trkpt>
      <trkpt lat="44.83661" lon="5.39039">
        <ele>1317.167</ele>
        <time>2015-09-27T07:48:43Z</time>
      </trkpt>
      <trkpt lat="44.83657" lon="5.39035">
        <ele>1318.562</ele>
        <time>2015-09-27T07:48:56Z</time>
      </trkpt>
      <trkpt lat="44.83646" lon="5.39012">
        <ele>1319.868</ele>
        <time>2015-09-27T07:49:13Z</time>
      </trkpt>
      <trkpt lat="44.83639" lon="5.38995">
        <ele>1322.555</ele>
        <time>2015-09-27T07:49:27Z</time>
      </trkpt>
      <trkpt lat="44.83639" lon="5.38975">
        <ele>1322.917</ele>
        <time>2015-09-27T07:49:43Z</time>
      </trkpt>
      <trkpt lat="44.83645" lon="5.38974">
        <ele>1323.366</ele>
        <time>2015-09-27T07:49:48Z</time>
      </trkpt>
      <trkpt lat="44.83659" lon="5.38966">
        <ele>1326.122</ele>
        <time>2015-09-27T07:50:04Z</time>
      </trkpt>
      <trkpt lat="44.83664" lon="5.38962">
        <ele>1327.026</ele>
        <time>2015-09-27T07:50:10Z</time>
      </trkpt>
      <trkpt lat="44.83672" lon="5.38954">
        <ele>1328.846</ele>
        <time>2015-09-27T07:50:22Z</time>
      </trkpt>
      <trkpt lat="44.83675" lon="5.38932">
        <ele>1331.121</ele>
        <time>2015-09-27T07:50:39Z</time>
      </trkpt>
      <trkpt lat="44.83675" lon="5.38929">
        <ele>1331.75</ele>
        <time>2015-09-27T07:50:41Z</time>
      </trkpt>
      <trkpt lat="44.83669" lon="5.38914">
        <ele>1332.606</ele>
        <time>2015-09-27T07:50:53Z</time>
      </trkpt>
      <trkpt lat="44.8366" lon="5.38897">
        <ele>1334.036</ele>
        <time>2015-09-27T07:51:08Z</time>
      </trkpt>
      <trkpt lat="44.83657" lon="5.38896">
        <ele>1333.927</ele>
        <time>2015-09-27T07:51:11Z</time>
      </trkpt>
      <trkpt lat="44.83643" lon="5.38887">
        <ele>1335.23</ele>
        <time>2015-09-27T07:51:23Z</time>
      </trkpt>
      <trkpt lat="44.83635" lon="5.3888">
        <ele>1336.065</ele>
        <time>2015-09-27T07:51:31Z</time>
      </trkpt>
      <trkpt lat="44.83633" lon="5.38878">
        <ele>1336.369</ele>
        <time>2015-09-27T07:51:33Z</time>
      </trkpt>
      <trkpt lat="44.83618" lon="5.38867">
        <ele>1337.994</ele>
        <time>2015-09-27T07:51:51Z</time>
      </trkpt>
      <trkpt lat="44.83608" lon="5.38865">
        <ele>1339.64</ele>
        <time>2015-09-27T07:52:01Z</time>
      </trkpt>
      <trkpt lat="44.83593" lon="5.38851">
        <ele>1341.03</ele>
        <time>2015-09-27T07:52:18Z</time>
      </trkpt>
      <trkpt lat="44.83573" lon="5.3884">
        <ele>1343.643</ele>
        <time>2015-09-27T07:52:39Z</time>
      </trkpt>
      <trkpt lat="44.83551" lon="5.38826">
        <ele>1346.476</ele>
        <time>2015-09-27T07:53:02Z</time>
      </trkpt>
      <trkpt lat="44.83539" lon="5.38815">
        <ele>1347.85</ele>
        <time>2015-09-27T07:53:16Z</time>
      </trkpt>
      <trkpt lat="44.83533" lon="5.38811">
        <ele>1348.489</ele>
        <time>2015-09-27T07:53:22Z</time>
      </trkpt>
      <trkpt lat="44.83516" lon="5.38802">
        <ele>1349.018</ele>
        <time>2015-09-27T07:53:37Z</time>
      </trkpt>
      <trkpt lat="44.83499" lon="5.38791">
        <ele>1350.511</ele>
        <time>2015-09-27T07:53:54Z</time>
      </trkpt>
      <trkpt lat="44.83488" lon="5.38782">
        <ele>1351.029</ele>
        <time>2015-09-27T07:54:04Z</time>
      </trkpt>
      <trkpt lat="44.8348" lon="5.38773">
        <ele>1351.908</ele>
        <time>2015-09-27T07:54:12Z</time>
      </trkpt>
      <trkpt lat="44.83481" lon="5.38759">
        <ele>1352.262</ele>
        <time>2015-09-27T07:54:20Z</time>
      </trkpt>
      <trkpt lat="44.83485" lon="5.38756">
        <ele>1352.225</ele>
        <time>2015-09-27T07:54:24Z</time>
      </trkpt>
      <trkpt lat="44.83497" lon="5.38753">
        <ele>1352.405</ele>
        <time>2015-09-27T07:54:37Z</time>
      </trkpt>
      <trkpt lat="44.83504" lon="5.38745">
        <ele>1353.341</ele>
        <time>2015-09-27T07:54:50Z</time>
      </trkpt>
      <trkpt lat="44.83519" lon="5.38745">
        <ele>1354.546</ele>
        <time>2015-09-27T07:55:00Z</time>
      </trkpt>
      <trkpt lat="44.83521" lon="5.38746">
        <ele>1354.326</ele>
        <time>2015-09-27T07:55:02Z</time>
      </trkpt>
      <trkpt lat="44.83534" lon="5.38743">
        <ele>1356.385</ele>
        <time>2015-09-27T07:55:15Z</time>
      </trkpt>
      <trkpt lat="44.8355" lon="5.38739">
        <ele>1357.978</ele>
        <time>2015-09-27T07:55:30Z</time>
      </trkpt>
      <trkpt lat="44.83553" lon="5.3874">
        <ele>1358.451</ele>
        <time>2015-09-27T07:55:32Z</time>
      </trkpt>
      <trkpt lat="44.83563" lon="5.38743">
        <ele>1359.36</ele>
        <time>2015-09-27T07:55:46Z</time>
      </trkpt>
      <trkpt lat="44.8357" lon="5.38746">
        <ele>1360.142</ele>
        <time>2015-09-27T07:55:54Z</time>
      </trkpt>
      <trkpt lat="44.83583" lon="5.38744">
        <ele>1360.882</ele>
        <time>2015-09-27T07:56:04Z</time>
      </trkpt>
      <trkpt lat="44.83599" lon="5.38743">
        <ele>1361.336</ele>
        <time>2015-09-27T07:56:17Z</time>
      </trkpt>
      <trkpt lat="44.83615" lon="5.38742">
        <ele>1362.272</ele>
        <time>2015-09-27T07:56:32Z</time>
      </trkpt>
      <trkpt lat="44.83631" lon="5.38741">
        <ele>1362.71</ele>
        <time>2015-09-27T07:56:45Z</time>
      </trkpt>
      <trkpt lat="44.83657" lon="5.38739">
        <ele>1363.772</ele>
        <time>2015-09-27T07:57:07Z</time>
      </trkpt>
      <trkpt lat="44.8368" lon="5.38738">
        <ele>1363.683</ele>
        <time>2015-09-27T07:57:27Z</time>
      </trkpt>
      <trkpt lat="44.83683" lon="5.38736">
        <ele>1364.137</ele>
        <time>2015-09-27T07:57:30Z</time>
      </trkpt>
      <trkpt lat="44.83721" lon="5.38734">
        <ele>1365.297</ele>
        <time>2015-09-27T07:58:00Z</time>
      </trkpt>
      <trkpt lat="44.83749" lon="5.38734">
        <ele>1366.716</ele>
        <time>2015-09-27T07:58:23Z</time>
      </trkpt>
      <trkpt lat="44.83776" lon="5.38735">
        <ele>1368.251</ele>
        <time>2015-09-27T07:58:46Z</time>
      </trkpt>
      <trkpt lat="44.838" lon="5.38736">
        <ele>1370.074</ele>
        <time>2015-09-27T07:59:07Z</time>
      </trkpt>
      <trkpt lat="44.83825" lon="5.38737">
        <ele>1371.845</ele>
        <time>2015-09-27T07:59:28Z</time>
      </trkpt>
      <trkpt lat="44.83843" lon="5.38738">
        <ele>1373.478</ele>
        <time>2015-09-27T07:59:45Z</time>
      </trkpt>
      <trkpt lat="44.83868" lon="5.38742">
        <ele>1375.267</ele>
        <time>2015-09-27T08:00:08Z</time>
      </trkpt>
      <trkpt lat="44.83895" lon="5.38742">
        <ele>1377.497</ele>
        <time>2015-09-27T08:00:31Z</time>
      </trkpt>
      <trkpt lat="44.83925" lon="5.38739">
        <ele>1379.684</ele>
        <time>2015-09-27T08:00:56Z</time>
      </trkpt>
      <trkpt lat="44.83948" lon="5.38741">
        <ele>1381.228</ele>
        <time>2015-09-27T08:01:17Z</time>
      </trkpt>
      <trkpt lat="44.83971" lon="5.38742">
        <ele>1383.878</ele>
        <time>2015-09-27T08:01:38Z</time>
      </trkpt>
      <trkpt lat="44.83994" lon="5.38741">
        <ele>1386.251</ele>
        <time>2015-09-27T08:01:59Z</time>
      </trkpt>
      <trkpt lat="44.8402" lon="5.38747">
        <ele>1389.318</ele>
        <time>2015-09-27T08:02:23Z</time>
      </trkpt>
      <trkpt lat="44.84042" lon="5.38754">
        <ele>1391.464</ele>
        <time>2015-09-27T08:02:44Z</time>
      </trkpt>
      <trkpt lat="44.84063" lon="5.38759">
        <ele>1394.489</ele>
        <time>2015-09-27T08:03:04Z</time>
      </trkpt>
      <trkpt lat="44.8408" lon="5.38761">
        <ele>1397.56</ele>
        <time>2015-09-27T08:03:22Z</time>
      </trkpt>
      <trkpt lat="44.84095" lon="5.38761">
        <ele>1400.762</ele>
        <time>2015-09-27T08:03:39Z</time>
      </trkpt>
      <trkpt lat="44.8411" lon="5.3876">
        <ele>1403.008</ele>
        <time>2015-09-27T08:03:56Z</time>
      </trkpt>
      <trkpt lat="44.84127" lon="5.38759">
        <ele>1406.158</ele>
        <time>2015-09-27T08:04:14Z</time>
      </trkpt>
      <trkpt lat="44.84146" lon="5.3876">
        <ele>1409.387</ele>
        <time>2015-09-27T08:04:34Z</time>
      </trkpt>
      <trkpt lat="44.84163" lon="5.38759">
        <ele>1412.151</ele>
        <time>2015-09-27T08:04:52Z</time>
      </trkpt>
      <trkpt lat="44.84179" lon="5.38763">
        <ele>1414.436</ele>
        <time>2015-09-27T08:05:11Z</time>
      </trkpt>
      <trkpt lat="44.84193" lon="5.38755">
        <ele>1417.153</ele>
        <time>2015-09-27T08:05:31Z</time>
      </trkpt>
      <trkpt lat="44.84195" lon="5.38756">
        <ele>1417.166</ele>
        <time>2015-09-27T08:05:43Z</time>
      </trkpt>
      <trkpt lat="44.84195" lon="5.38761">
        <ele>1417.361</ele>
        <time>2015-09-27T08:05:55Z</time>
      </trkpt>
      <trkpt lat="44.84201" lon="5.38758">
        <ele>1417.781</ele>
        <time>2015-09-27T08:06:07Z</time>
      </trkpt>
      <trkpt lat="44.84204" lon="5.38756">
        <ele>1418.03</ele>
        <time>2015-09-27T08:06:10Z</time>
      </trkpt>
      <trkpt lat="44.84209" lon="5.38754">
        <ele>1418.984</ele>
        <time>2015-09-27T08:06:16Z</time>
      </trkpt>
      <trkpt lat="44.84223" lon="5.3876">
        <ele>1422.017</ele>
        <time>2015-09-27T08:06:32Z</time>
      </trkpt>
      <trkpt lat="44.84237" lon="5.38771">
        <ele>1425.066</ele>
        <time>2015-09-27T08:06:49Z</time>
      </trkpt>
      <trkpt lat="44.84247" lon="5.38753">
        <ele>1429.952</ele>
        <time>2015-09-27T08:07:52Z</time>
      </trkpt>
      <trkpt lat="44.84244" lon="5.3875">
        <ele>1428.826</ele>
        <time>2015-09-27T08:08:06Z</time>
      </trkpt>
      <trkpt lat="44.84237" lon="5.38726">
        <ele>1427.735</ele>
        <time>2015-09-27T08:08:23Z</time>
      </trkpt>
      <trkpt lat="44.84232" lon="5.38715">
        <ele>1425.999</ele>
        <time>2015-09-27T08:08:40Z</time>
      </trkpt>
      <trkpt lat="44.84231" lon="5.38716">
        <ele>1426.057</ele>
        <time>2015-09-27T08:09:46Z</time>
      </trkpt>
      <trkpt lat="44.84232" lon="5.38717">
        <ele>1416.204</ele>
        <time>2015-09-27T08:14:58Z</time>
      </trkpt>
      <trkpt lat="44.84231" lon="5.38715">
        <ele>1417.068</ele>
        <time>2015-09-27T08:15:29Z</time>
      </trkpt>
      <trkpt lat="44.84228" lon="5.38705">
        <ele>1417.404</ele>
        <time>2015-09-27T08:15:38Z</time>
      </trkpt>
      <trkpt lat="44.84224" lon="5.38692">
        <ele>1417.205</ele>
        <time>2015-09-27T08:15:46Z</time>
      </trkpt>
      <trkpt lat="44.84207" lon="5.38658">
        <ele>1420.226</ele>
        <time>2015-09-27T08:16:12Z</time>
      </trkpt>
      <trkpt lat="44.84191" lon="5.38624">
        <ele>1422.419</ele>
        <time>2015-09-27T08:16:38Z</time>
      </trkpt>
      <trkpt lat="44.84176" lon="5.38598">
        <ele>1424.675</ele>
        <time>2015-09-27T08:17:01Z</time>
      </trkpt>
      <trkpt lat="44.84166" lon="5.38581">
        <ele>1427.719</ele>
        <time>2015-09-27T08:17:19Z</time>
      </trkpt>
      <trkpt lat="44.84154" lon="5.38559">
        <ele>1430.969</ele>
        <time>2015-09-27T08:17:40Z</time>
      </trkpt>
      <trkpt lat="44.8414" lon="5.38539">
        <ele>1434.003</ele>
        <time>2015-09-27T08:18:03Z</time>
      </trkpt>
      <trkpt lat="44.84125" lon="5.38519">
        <ele>1436.005</ele>
        <time>2015-09-27T08:18:24Z</time>
      </trkpt>
      <trkpt lat="44.84106" lon="5.38497">
        <ele>1437.75</ele>
        <time>2015-09-27T08:18:47Z</time>
      </trkpt>
      <trkpt lat="44.84088" lon="5.38474">
        <ele>1440.828</ele>
        <time>2015-09-27T08:19:10Z</time>
      </trkpt>
      <trkpt lat="44.84071" lon="5.38447">
        <ele>1444.033</ele>
        <time>2015-09-27T08:19:38Z</time>
      </trkpt>
      <trkpt lat="44.84054" lon="5.38423">
        <ele>1446.451</ele>
        <time>2015-09-27T08:20:01Z</time>
      </trkpt>
      <trkpt lat="44.84046" lon="5.38408">
        <ele>1448.72</ele>
        <time>2015-09-27T08:20:16Z</time>
      </trkpt>
      <trkpt lat="44.84033" lon="5.38388">
        <ele>1451.352</ele>
        <time>2015-09-27T08:20:37Z</time>
      </trkpt>
      <trkpt lat="44.84018" lon="5.38361">
        <ele>1454.356</ele>
        <time>2015-09-27T08:21:01Z</time>
      </trkpt>
      <trkpt lat="44.84005" lon="5.38338">
        <ele>1457.48</ele>
        <time>2015-09-27T08:21:22Z</time>
      </trkpt>
      <trkpt lat="44.83993" lon="5.38319">
        <ele>1461.176</ele>
        <time>2015-09-27T08:21:42Z</time>
      </trkpt>
      <trkpt lat="44.83983" lon="5.38302">
        <ele>1464.389</ele>
        <time>2015-09-27T08:22:01Z</time>
      </trkpt>
      <trkpt lat="44.83973" lon="5.38284">
        <ele>1467.843</ele>
        <time>2015-09-27T08:22:20Z</time>
      </trkpt>
      <trkpt lat="44.83966" lon="5.38269">
        <ele>1470.945</ele>
        <time>2015-09-27T08:22:38Z</time>
      </trkpt>
      <trkpt lat="44.83957" lon="5.38256">
        <ele>1473.952</ele>
        <time>2015-09-27T08:22:54Z</time>
      </trkpt>
      <trkpt lat="44.8395" lon="5.38244">
        <ele>1477.043</ele>
        <time>2015-09-27T08:23:08Z</time>
      </trkpt>
      <trkpt lat="44.83943" lon="5.38229">
        <ele>1480.441</ele>
        <time>2015-09-27T08:23:24Z</time>
      </trkpt>
      <trkpt lat="44.83936" lon="5.38219">
        <ele>1482.981</ele>
        <time>2015-09-27T08:23:46Z</time>
      </trkpt>
      <trkpt lat="44.83935" lon="5.38212">
        <ele>1483.755</ele>
        <time>2015-09-27T08:24:11Z</time>
      </trkpt>
      <trkpt lat="44.83926" lon="5.38197">
        <ele>1486.849</ele>
        <time>2015-09-27T08:24:27Z</time>
      </trkpt>
      <trkpt lat="44.8392" lon="5.38183">
        <ele>1489.885</ele>
        <time>2015-09-27T08:24:41Z</time>
      </trkpt>
      <trkpt lat="44.8391" lon="5.38167">
        <ele>1493.156</ele>
        <time>2015-09-27T08:24:59Z</time>
      </trkpt>
      <trkpt lat="44.83901" lon="5.38149">
        <ele>1496.343</ele>
        <time>2015-09-27T08:25:18Z</time>
      </trkpt>
      <trkpt lat="44.83891" lon="5.38133">
        <ele>1499.643</ele>
        <time>2015-09-27T08:25:36Z</time>
      </trkpt>
      <trkpt lat="44.83884" lon="5.38121">
        <ele>1501.173</ele>
        <time>2015-09-27T08:25:48Z</time>
      </trkpt>
      <trkpt lat="44.83879" lon="5.38118">
        <ele>1502.275</ele>
        <time>2015-09-27T08:25:54Z</time>
      </trkpt>
      <trkpt lat="44.83876" lon="5.38113">
        <ele>1502.275</ele>
        <time>2015-09-27T08:26:16Z</time>
      </trkpt>
      <trkpt lat="44.83874" lon="5.38108">
        <ele>1502.774</ele>
        <time>2015-09-27T08:26:20Z</time>
      </trkpt>
      <trkpt lat="44.83859" lon="5.38077">
        <ele>1504.164</ele>
        <time>2015-09-27T08:26:44Z</time>
      </trkpt>
      <trkpt lat="44.83848" lon="5.38045">
        <ele>1506.83</ele>
        <time>2015-09-27T08:27:08Z</time>
      </trkpt>
      <trkpt lat="44.83841" lon="5.38024">
        <ele>1509.89</ele>
        <time>2015-09-27T08:27:25Z</time>
      </trkpt>
      <trkpt lat="44.83831" lon="5.37993">
        <ele>1513.042</ele>
        <time>2015-09-27T08:27:49Z</time>
      </trkpt>
      <trkpt lat="44.83823" lon="5.37958">
        <ele>1515.566</ele>
        <time>2015-09-27T08:28:14Z</time>
      </trkpt>
      <trkpt lat="44.83816" lon="5.3794">
        <ele>1517.632</ele>
        <time>2015-09-27T08:28:38Z</time>
      </trkpt>
      <trkpt lat="44.83812" lon="5.37936">
        <ele>1518.079</ele>
        <time>2015-09-27T08:29:01Z</time>
      </trkpt>
      <trkpt lat="44.83802" lon="5.37927">
        <ele>1519.738</ele>
        <time>2015-09-27T08:29:13Z</time>
      </trkpt>
      <trkpt lat="44.83781" lon="5.37905">
        <ele>1521.709</ele>
        <time>2015-09-27T08:29:37Z</time>
      </trkpt>
      <trkpt lat="44.83779" lon="5.37903">
        <ele>1521.339</ele>
        <time>2015-09-27T08:29:39Z</time>
      </trkpt>
      <trkpt lat="44.83768" lon="5.37894">
        <ele>1522.269</ele>
        <time>2015-09-27T08:30:01Z</time>
      </trkpt>
      <trkpt lat="44.83757" lon="5.37885">
        <ele>1522.716</ele>
        <time>2015-09-27T08:30:30Z</time>
      </trkpt>
      <trkpt lat="44.83755" lon="5.37885">
        <ele>1522.573</ele>
        <time>2015-09-27T08:30:32Z</time>
      </trkpt>
      <trkpt lat="44.8373" lon="5.37871">
        <ele>1524.177</ele>
        <time>2015-09-27T08:30:55Z</time>
      </trkpt>
      <trkpt lat="44.83704" lon="5.37858">
        <ele>1524.426</ele>
        <time>2015-09-27T08:31:18Z</time>
      </trkpt>
      <trkpt lat="44.83677" lon="5.37844">
        <ele>1525.86</ele>
        <time>2015-09-27T08:31:42Z</time>
      </trkpt>
      <trkpt lat="44.83668" lon="5.37839">
        <ele>1526.452</ele>
        <time>2015-09-27T08:31:50Z</time>
      </trkpt>
      <trkpt lat="44.83666" lon="5.37839">
        <ele>1526.83</ele>
        <time>2015-09-27T08:31:52Z</time>
      </trkpt>
      <trkpt lat="44.83639" lon="5.37825">
        <ele>1527.422</ele>
        <time>2015-09-27T08:32:16Z</time>
      </trkpt>
      <trkpt lat="44.83621" lon="5.37818">
        <ele>1528.307</ele>
        <time>2015-09-27T08:32:32Z</time>
      </trkpt>
      <trkpt lat="44.83615" lon="5.37819">
        <ele>1528.075</ele>
        <time>2015-09-27T08:32:46Z</time>
      </trkpt>
      <trkpt lat="44.83609" lon="5.37815">
        <ele>1528.917</ele>
        <time>2015-09-27T08:32:52Z</time>
      </trkpt>
      <trkpt lat="44.83585" lon="5.37807">
        <ele>1528.302</ele>
        <time>2015-09-27T08:33:15Z</time>
      </trkpt>
      <trkpt lat="44.83575" lon="5.37803">
        <ele>1528.579</ele>
        <time>2015-09-27T08:33:33Z</time>
      </trkpt>
      <trkpt lat="44.83564" lon="5.37797">
        <ele>1528.968</ele>
        <time>2015-09-27T08:33:45Z</time>
      </trkpt>
      <trkpt lat="44.8356" lon="5.37798">
        <ele>1529.126</ele>
        <time>2015-09-27T08:33:48Z</time>
      </trkpt>
      <trkpt lat="44.83549" lon="5.37794">
        <ele>1529.026</ele>
        <time>2015-09-27T08:33:57Z</time>
      </trkpt>
      <trkpt lat="44.83539" lon="5.3779">
        <ele>1528.92</ele>
        <time>2015-09-27T08:34:14Z</time>
      </trkpt>
      <trkpt lat="44.8351" lon="5.3778">
        <ele>1527.797</ele>
        <time>2015-09-27T08:34:37Z</time>
      </trkpt>
      <trkpt lat="44.83492" lon="5.37777">
        <ele>1526.862</ele>
        <time>2015-09-27T08:34:52Z</time>
      </trkpt>
      <trkpt lat="44.83471" lon="5.37768">
        <ele>1527.155</ele>
        <time>2015-09-27T08:35:10Z</time>
      </trkpt>
      <trkpt lat="44.83444" lon="5.37756">
        <ele>1527.419</ele>
        <time>2015-09-27T08:35:33Z</time>
      </trkpt>
      <trkpt lat="44.83419" lon="5.37749">
        <ele>1528.315</ele>
        <time>2015-09-27T08:35:55Z</time>
      </trkpt>
      <trkpt lat="44.83415" lon="5.37746">
        <ele>1528.841</ele>
        <time>2015-09-27T08:36:09Z</time>
      </trkpt>
      <trkpt lat="44.83389" lon="5.37741">
        <ele>1528.999</ele>
        <time>2015-09-27T08:36:32Z</time>
      </trkpt>
      <trkpt lat="44.83382" lon="5.37741">
        <ele>1529.171</ele>
        <time>2015-09-27T08:36:52Z</time>
      </trkpt>
      <trkpt lat="44.83366" lon="5.37738">
        <ele>1530.18</ele>
        <time>2015-09-27T08:37:15Z</time>
      </trkpt>
      <trkpt lat="44.83343" lon="5.37728">
        <ele>1531.763</ele>
        <time>2015-09-27T08:37:36Z</time>
      </trkpt>
      <trkpt lat="44.83313" lon="5.37724">
        <ele>1533.328</ele>
        <time>2015-09-27T08:38:01Z</time>
      </trkpt>
      <trkpt lat="44.83292" lon="5.37723">
        <ele>1534.083</ele>
        <time>2015-09-27T08:38:21Z</time>
      </trkpt>
      <trkpt lat="44.83275" lon="5.37719">
        <ele>1533.951</ele>
        <time>2015-09-27T08:39:05Z</time>
      </trkpt>
      <trkpt lat="44.83249" lon="5.37712">
        <ele>1535.04</ele>
        <time>2015-09-27T08:39:27Z</time>
      </trkpt>
      <trkpt lat="44.83247" lon="5.37712">
        <ele>1535.124</ele>
        <time>2015-09-27T08:39:29Z</time>
      </trkpt>
      <trkpt lat="44.83214" lon="5.37701">
        <ele>1535.666</ele>
        <time>2015-09-27T08:39:55Z</time>
      </trkpt>
      <trkpt lat="44.83185" lon="5.37694">
        <ele>1535.637</ele>
        <time>2015-09-27T08:40:18Z</time>
      </trkpt>
      <trkpt lat="44.83158" lon="5.37686">
        <ele>1534.794</ele>
        <time>2015-09-27T08:40:40Z</time>
      </trkpt>
      <trkpt lat="44.8313" lon="5.37678">
        <ele>1536.472</ele>
        <time>2015-09-27T08:41:02Z</time>
      </trkpt>
      <trkpt lat="44.83108" lon="5.37667">
        <ele>1537.872</ele>
        <time>2015-09-27T08:41:22Z</time>
      </trkpt>
      <trkpt lat="44.83089" lon="5.37652">
        <ele>1540.594</ele>
        <time>2015-09-27T08:41:42Z</time>
      </trkpt>
      <trkpt lat="44.83072" lon="5.37644">
        <ele>1543.572</ele>
        <time>2015-09-27T08:42:01Z</time>
      </trkpt>
      <trkpt lat="44.83051" lon="5.37639">
        <ele>1546</ele>
        <time>2015-09-27T08:42:21Z</time>
      </trkpt>
      <trkpt lat="44.83029" lon="5.37626">
        <ele>1548.883</ele>
        <time>2015-09-27T08:42:44Z</time>
      </trkpt>
      <trkpt lat="44.83014" lon="5.37613">
        <ele>1550.55</ele>
        <time>2015-09-27T08:42:59Z</time>
      </trkpt>
      <trkpt lat="44.83003" lon="5.37599">
        <ele>1552.611</ele>
        <time>2015-09-27T08:43:17Z</time>
      </trkpt>
      <trkpt lat="44.82993" lon="5.37585">
        <ele>1552.823</ele>
        <time>2015-09-27T08:43:32Z</time>
      </trkpt>
      <trkpt lat="44.82989" lon="5.37575">
        <ele>1552.445</ele>
        <time>2015-09-27T08:44:03Z</time>
      </trkpt>
      <trkpt lat="44.82979" lon="5.37558">
        <ele>1552.648</ele>
        <time>2015-09-27T08:44:20Z</time>
      </trkpt>
      <trkpt lat="44.82971" lon="5.37536">
        <ele>1549.335</ele>
        <time>2015-09-27T08:44:42Z</time>
      </trkpt>
      <trkpt lat="44.8296" lon="5.37522">
        <ele>1547.924</ele>
        <time>2015-09-27T08:44:55Z</time>
      </trkpt>
      <trkpt lat="44.82951" lon="5.37511">
        <ele>1545.675</ele>
        <time>2015-09-27T08:45:07Z</time>
      </trkpt>
      <trkpt lat="44.8295" lon="5.37508">
        <ele>1544.977</ele>
        <time>2015-09-27T08:45:22Z</time>
      </trkpt>
      <trkpt lat="44.82942" lon="5.37497">
        <ele>1544.238</ele>
        <time>2015-09-27T08:45:50Z</time>
      </trkpt>
      <trkpt lat="44.82921" lon="5.37475">
        <ele>1543.403</ele>
        <time>2015-09-27T08:46:07Z</time>
      </trkpt>
      <trkpt lat="44.82905" lon="5.37454">
        <ele>1541.55</ele>
        <time>2015-09-27T08:46:25Z</time>
      </trkpt>
      <trkpt lat="44.82894" lon="5.37448">
        <ele>1543.231</ele>
        <time>2015-09-27T08:46:37Z</time>
      </trkpt>
      <trkpt lat="44.8288" lon="5.37442">
        <ele>1544.721</ele>
        <time>2015-09-27T08:46:51Z</time>
      </trkpt>
      <trkpt lat="44.82854" lon="5.3742">
        <ele>1543.321</ele>
        <time>2015-09-27T08:47:12Z</time>
      </trkpt>
      <trkpt lat="44.82843" lon="5.37407">
        <ele>1542.536</ele>
        <time>2015-09-27T08:47:26Z</time>
      </trkpt>
      <trkpt lat="44.82831" lon="5.37398">
        <ele>1542.327</ele>
        <time>2015-09-27T08:47:38Z</time>
      </trkpt>
      <trkpt lat="44.82818" lon="5.37393">
        <ele>1543.03</ele>
        <time>2015-09-27T08:47:49Z</time>
      </trkpt>
      <trkpt lat="44.82815" lon="5.37391">
        <ele>1542.774</ele>
        <time>2015-09-27T08:47:53Z</time>
      </trkpt>
      <trkpt lat="44.82802" lon="5.37391">
        <ele>1545.931</ele>
        <time>2015-09-27T08:48:06Z</time>
      </trkpt>
      <trkpt lat="44.82791" lon="5.37392">
        <ele>1548.23</ele>
        <time>2015-09-27T08:48:17Z</time>
      </trkpt>
      <trkpt lat="44.82789" lon="5.37391">
        <ele>1548.933</ele>
        <time>2015-09-27T08:48:24Z</time>
      </trkpt>
      <trkpt lat="44.82776" lon="5.37387">
        <ele>1549.829</ele>
        <time>2015-09-27T08:48:38Z</time>
      </trkpt>
      <trkpt lat="44.82769" lon="5.37384">
        <ele>1550.513</ele>
        <time>2015-09-27T08:48:45Z</time>
      </trkpt>
      <trkpt lat="44.82758" lon="5.3738">
        <ele>1552.527</ele>
        <time>2015-09-27T08:48:59Z</time>
      </trkpt>
      <trkpt lat="44.82756" lon="5.3738">
        <ele>1551.398</ele>
        <time>2015-09-27T08:49:22Z</time>
      </trkpt>
      <trkpt lat="44.82754" lon="5.37379">
        <ele>1552.402</ele>
        <time>2015-09-27T08:50:23Z</time>
      </trkpt>
      <trkpt lat="44.82737" lon="5.37366">
        <ele>1553.155</ele>
        <time>2015-09-27T08:50:42Z</time>
      </trkpt>
      <trkpt lat="44.82716" lon="5.37349">
        <ele>1553.11</ele>
        <time>2015-09-27T08:51:02Z</time>
      </trkpt>
    </trkseg>
  </trk>
</gpx>